Time;durP1;ratioP1;P1;durP2;ratioP2;P2;SDS_P1;SDS_P2;PMS_P1;PMS_P2;Temp;Humidity;BMP_temperature;BMP_pressure;BME280_temperature;BME280_humidity;BME280_pressure;Samples;Min_cycle;Max_cycle;Signal;HPM_P1;HPM_P2
2023/01/21 00:00:55;;;;;;;28.90;15.70;;;-1.30;99.90;;;;;;6206696;23;20421;-76
2023/01/21 00:03:22;;;;;;;32.77;16.90;;;-1.20;99.90;;;;;;6206371;23;20411;-76
2023/01/21 00:05:49;;;;;;;29.87;16.33;;;-1.20;99.90;;;;;;6206243;23;20414;-76
2023/01/21 00:08:16;;;;;;;30.50;16.10;;;-1.10;99.90;;;;;;6205511;23;20414;-76
2023/01/21 00:10:43;;;;;;;33.50;17.47;;;-1.40;99.90;;;;;;6206070;23;20425;-76
2023/01/21 00:13:10;;;;;;;29.97;18.20;;;-1.50;99.90;;;;;;6205869;23;20448;-76
2023/01/21 00:15:38;;;;;;;28.70;16.10;;;-1.70;99.90;;;;;;6206565;23;20410;-76
2023/01/21 00:18:05;;;;;;;37.60;16.03;;;-1.30;99.90;;;;;;6206126;23;20415;-77
2023/01/21 00:20:32;;;;;;;30.80;16.90;;;-1.30;99.90;;;;;;6206111;23;21068;-77
2023/01/21 00:22:58;;;;;;;33.67;18.83;;;-1.40;99.90;;;;;;6206013;23;20999;-75
2023/01/21 00:25:25;;;;;;;33.50;15.43;;;-1.30;99.90;;;;;;6207617;23;20407;-79
2023/01/21 00:27:52;;;;;;;29.37;15.70;;;-1.10;99.90;;;;;;6209330;23;20415;-78
2023/01/21 00:30:19;;;;;;;31.53;16.90;;;-1.20;99.90;;;;;;6208171;23;20436;-78
2023/01/21 00:32:47;;;;;;;28.87;15.80;;;-1.20;99.90;;;;;;6208479;23;20520;-78
2023/01/21 00:35:14;;;;;;;22.87;14.90;;;-1.30;99.90;;;;;;6208899;23;20421;-78
2023/01/21 00:37:41;;;;;;;30.17;15.90;;;-1.20;99.90;;;;;;6208941;23;20421;-78
2023/01/21 00:40:09;;;;;;;28.50;16.30;;;-1.50;99.90;;;;;;6209407;23;20405;-78
2023/01/21 00:42:36;;;;;;;28.93;15.33;;;-1.40;99.90;;;;;;6208857;23;20413;-77
2023/01/21 00:45:02;;;;;;;34.77;16.90;;;-1.50;99.90;;;;;;6208933;23;20425;-78
2023/01/21 00:47:29;;;;;;;34.03;18.30;;;-1.40;99.90;;;;;;6208937;23;20529;-78
2023/01/21 00:49:57;;;;;;;32.90;18.07;;;-1.50;99.90;;;;;;6210437;23;20975;-77
2023/01/21 00:52:24;;;;;;;27.50;16.47;;;-1.70;99.90;;;;;;6211148;23;20441;-79
2023/01/21 00:54:51;;;;;;;32.40;16.30;;;-1.50;99.90;;;;;;6211001;23;20422;-77
2023/01/21 00:57:18;;;;;;;27.20;15.47;;;-1.60;99.90;;;;;;6215869;23;20422;-77
2023/01/21 00:59:45;;;;;;;28.00;14.53;;;-1.50;99.90;;;;;;6215623;23;20399;-79
2023/01/21 01:02:11;;;;;;;32.30;16.73;;;-1.40;99.90;;;;;;6213702;23;20421;-78
2023/01/21 01:04:38;;;;;;;31.10;18.70;;;-1.60;99.90;;;;;;6214261;23;20415;-78
2023/01/21 01:07:06;;;;;;;28.73;17.17;;;-1.30;99.90;;;;;;6211506;23;20896;-77
2023/01/21 01:09:33;;;;;;;27.83;15.23;;;-1.40;99.90;;;;;;6210223;23;20395;-77
2023/01/21 01:12:00;;;;;;;32.23;14.50;;;-1.40;99.90;;;;;;6210510;23;20411;-78
2023/01/21 01:14:27;;;;;;;25.93;15.47;;;-1.30;99.90;;;;;;6210666;23;20446;-79
2023/01/21 01:16:53;;;;;;;33.80;16.57;;;-1.30;99.90;;;;;;6210912;23;21031;-78
2023/01/21 01:19:20;;;;;;;32.60;16.50;;;-1.30;99.90;;;;;;6210567;23;20414;-78
2023/01/21 01:21:47;;;;;;;24.73;14.00;;;-1.30;99.90;;;;;;6211569;23;20441;-78
2023/01/21 01:24:16;;;;;;;23.60;13.67;;;-1.30;99.90;;;;;;6215410;23;20414;-81
2023/01/21 01:26:43;;;;;;;28.77;16.23;;;-1.30;99.90;;;;;;6214918;23;20501;-78
2023/01/21 01:29:12;;;;;;;26.37;15.33;;;-1.20;99.90;;;;;;6214982;23;20401;-77
2023/01/21 01:31:39;;;;;;;31.93;15.50;;;-1.30;99.90;;;;;;6215894;23;20497;-79
2023/01/21 01:34:05;;;;;;;23.93;13.40;;;-1.30;99.90;;;;;;6213209;23;20444;-78
2023/01/21 01:36:32;;;;;;;28.60;17.10;;;-1.30;99.90;;;;;;6210634;23;20418;-78
2023/01/21 01:38:59;;;;;;;27.33;16.20;;;-1.30;99.90;;;;;;6211892;23;20411;-78
2023/01/21 01:41:29;;;;;;;27.17;13.60;;;-1.60;99.90;;;;;;6211638;23;20478;-77
2023/01/21 01:43:59;;;;;;;22.73;14.90;;;-1.40;99.90;;;;;;6211894;23;20382;-78
2023/01/21 01:46:28;;;;;;;23.37;13.80;;;-1.30;99.90;;;;;;6211360;23;20741;-78
2023/01/21 01:49:03;;;;;;;27.27;14.10;;;-1.30;99.90;;;;;;6210407;23;21150;-78
2023/01/21 01:51:39;;;;;;;22.50;14.20;;;-1.30;99.90;;;;;;6211410;23;20379;-78
2023/01/21 01:54:07;;;;;;;26.83;15.10;;;-1.40;99.90;;;;;;6211903;23;20430;-78
2023/01/21 01:56:38;;;;;;;26.50;13.27;;;-1.60;99.90;;;;;;6211601;23;20410;-77
2023/01/21 01:59:04;;;;;;;30.57;15.70;;;-1.60;99.90;;;;;;6211314;23;20546;-79
2023/01/21 02:01:31;;;;;;;35.60;14.63;;;-1.50;99.90;;;;;;6211104;23;20410;-78
2023/01/21 02:04:01;;;;;;;24.47;13.37;;;-1.50;99.90;;;;;;6210828;23;20410;-78
2023/01/21 02:06:28;;;;;;;25.97;13.67;;;-1.40;99.90;;;;;;6210922;23;20561;-79
2023/01/21 02:08:56;;;;;;;24.37;14.97;;;-1.40;99.90;;;;;;6210698;23;20455;-78
2023/01/21 02:11:23;;;;;;;29.73;15.00;;;-1.40;99.90;;;;;;6211037;23;20406;-78
2023/01/21 02:13:54;;;;;;;24.43;13.47;;;-1.40;99.90;;;;;;6210556;23;20446;-78
2023/01/21 02:16:55;;;;;;;23.63;13.80;;;-1.30;99.90;;;;;;6210594;23;20398;-79
2023/01/21 02:19:56;;;;;;;24.07;14.00;;;-1.50;99.90;;;;;;6203521;23;20539;-79
2023/01/21 02:22:29;;;;;;;27.10;15.07;;;-1.50;99.90;;;;;;6164533;23;20424;-78
2023/01/21 02:25:51;;;;;;;30.00;16.60;;;-2.00;99.90;;;;;;6210745;23;20537;-78
2023/01/21 02:28:54;;;;;;;27.90;15.20;;;-2.00;99.90;;;;;;6099624;23;20784;-77
2023/01/21 02:31:35;;;;;;;32.80;17.97;;;-1.80;99.90;;;;;;6211039;23;20441;-78
2023/01/21 02:34:13;;;;;;;36.60;17.57;;;-2.00;99.90;;;;;;6210299;23;20438;-78
2023/01/21 02:37:07;;;;;;;31.93;17.37;;;-1.90;99.90;;;;;;6210367;23;20398;-78
2023/01/21 02:39:53;;;;;;;28.13;14.60;;;-1.80;99.90;;;;;;6210310;23;20811;-78
2023/01/21 02:42:27;;;;;;;33.73;17.20;;;-1.80;99.90;;;;;;6211519;23;20392;-78
2023/01/21 02:45:02;;;;;;;25.40;14.40;;;-1.70;99.90;;;;;;6210263;23;20379;-78
2023/01/21 02:47:33;;;;;;;35.37;16.43;;;-1.70;99.90;;;;;;6210501;23;20394;-78
2023/01/21 02:50:05;;;;;;;26.57;14.77;;;-1.70;99.90;;;;;;6210224;23;20911;-79
2023/01/21 02:52:31;;;;;;;36.57;18.40;;;-1.60;99.90;;;;;;6209986;23;20672;-78
2023/01/21 02:54:59;;;;;;;29.87;15.13;;;-1.60;99.90;;;;;;6210697;23;20417;-80
2023/01/21 02:57:44;;;;;;;35.77;18.17;;;-1.50;99.90;;;;;;6210640;23;20391;-79
2023/01/21 03:00:17;;;;;;;35.63;17.67;;;-1.80;99.90;;;;;;6211210;23;20390;-78
2023/01/21 03:03:21;;;;;;;27.13;14.57;;;-1.70;99.90;;;;;;6210653;23;20662;-79
2023/01/21 03:06:05;;;;;;;27.33;15.70;;;-1.70;99.90;;;;;;6210462;23;20398;-78
2023/01/21 03:08:40;;;;;;;35.60;18.37;;;-1.60;99.90;;;;;;6210338;23;20379;-78
2023/01/21 03:11:13;;;;;;;37.73;17.97;;;-1.90;99.90;;;;;;6210826;23;20590;-79
2023/01/21 03:19:25;;;;;;;32.50;15.43;;;-1.70;99.90;;;;;;6210209;23;20790;-80
2023/01/21 03:21:55;;;;;;;32.47;18.90;;;-1.60;99.90;;;;;;6210436;23;20723;-78
2023/01/21 03:24:23;;;;;;;27.40;15.70;;;-1.70;99.90;;;;;;6209274;23;20421;-77
2023/01/21 03:26:54;;;;;;;28.53;17.83;;;-1.80;99.90;;;;;;6210737;23;20420;-79
2023/01/21 03:29:24;;;;;;;33.57;16.37;;;-1.90;99.90;;;;;;6210909;23;20428;-78
2023/01/21 03:31:56;;;;;;;34.53;17.60;;;-1.90;99.90;;;;;;6210428;23;20773;-78
2023/01/21 03:34:27;;;;;;;30.07;18.07;;;-1.80;99.90;;;;;;6210353;23;20446;-78
2023/01/21 03:36:58;;;;;;;23.60;15.20;;;-1.80;99.90;;;;;;6210300;23;20447;-77
2023/01/21 03:39:32;;;;;;;30.23;15.03;;;-1.70;99.90;;;;;;6214788;22;20410;-80
2023/01/21 03:41:59;;;;;;;24.17;14.40;;;-1.60;99.90;;;;;;6222149;23;20404;-86
2023/01/21 03:44:26;;;;;;;28.33;15.03;;;-1.60;99.90;;;;;;6238919;23;20742;-87
2023/01/21 03:47:02;;;;;;;33.77;18.17;;;-1.60;99.90;;;;;;6242832;22;20476;-87
2023/01/21 03:49:34;;;;;;;31.73;16.00;;;-1.80;99.90;;;;;;6221024;23;20445;-89
2023/01/21 03:52:05;;;;;;;22.53;13.03;;;-1.70;99.90;;;;;;6241262;23;20399;-85
2023/01/21 03:54:32;;;;;;;30.30;15.60;;;-1.70;99.90;;;;;;6243995;22;20437;-81
2023/01/21 03:56:59;;;;;;;26.97;15.53;;;-1.70;99.90;;;;;;6244006;22;20461;-82
2023/01/21 03:59:25;;;;;;;28.17;16.23;;;-1.60;99.90;;;;;;6243871;22;20394;-82
2023/01/21 04:01:52;;;;;;;27.43;16.90;;;-1.60;99.90;;;;;;6244062;22;20489;-84
2023/01/21 04:04:19;;;;;;;33.10;16.50;;;-1.70;99.90;;;;;;6243163;22;20422;-90
2023/01/21 04:06:46;;;;;;;25.67;14.43;;;-1.80;99.90;;;;;;6237702;22;20389;-87
2023/01/21 04:09:14;;;;;;;30.23;15.80;;;-1.70;99.90;;;;;;6241031;22;20401;-85
2023/01/21 04:11:40;;;;;;;27.37;15.57;;;-1.70;99.90;;;;;;6243878;22;20455;-85
2023/01/21 04:14:07;;;;;;;32.20;16.30;;;-1.60;99.90;;;;;;6240582;23;20528;-89
2023/01/21 04:16:34;;;;;;;24.10;14.53;;;-1.70;99.90;;;;;;6233958;22;20449;-89
2023/01/21 04:19:01;;;;;;;33.10;15.70;;;-1.70;99.90;;;;;;6240760;22;20403;-86
2023/01/21 04:21:28;;;;;;;27.73;17.07;;;-1.60;99.90;;;;;;6243001;22;20462;-82
2023/01/21 04:23:54;;;;;;;28.50;16.07;;;-1.70;99.90;;;;;;6241404;22;20437;-88
2023/01/21 04:26:22;;;;;;;21.00;12.10;;;-1.80;99.90;;;;;;6239739;22;20461;-89
2023/01/21 04:28:49;;;;;;;28.80;15.87;;;-1.70;99.90;;;;;;6241170;22;20439;-85
2023/01/21 04:31:16;;;;;;;29.23;14.80;;;-1.50;99.90;;;;;;6243590;23;20423;-83
2023/01/21 04:33:43;;;;;;;29.50;16.90;;;-1.70;99.90;;;;;;6243691;22;20513;-82
2023/01/21 04:36:09;;;;;;;31.83;17.27;;;-1.70;99.90;;;;;;6244083;23;20400;-86
2023/01/21 04:38:36;;;;;;;30.67;15.77;;;-1.60;99.90;;;;;;6241829;22;20418;-88
2023/01/21 04:41:03;;;;;;;27.97;17.07;;;-1.70;99.90;;;;;;6241256;22;20474;-89
2023/01/21 04:43:31;;;;;;;30.63;16.50;;;-1.70;99.90;;;;;;6243267;22;20974;-84
2023/01/21 04:45:58;;;;;;;33.30;16.00;;;-1.80;99.90;;;;;;6242867;22;20493;-87
2023/01/21 04:48:24;;;;;;;28.20;15.83;;;-1.80;99.90;;;;;;6243777;22;20525;-81
2023/01/21 04:50:51;;;;;;;36.37;16.67;;;-1.70;99.90;;;;;;6243549;22;20465;-88
2023/01/21 04:53:18;;;;;;;32.27;16.07;;;-1.70;99.90;;;;;;6243437;22;20477;-82
2023/01/21 04:55:45;;;;;;;25.90;14.80;;;-1.70;99.90;;;;;;6239259;22;20490;-88
2023/01/21 04:58:11;;;;;;;35.50;16.40;;;-1.80;99.90;;;;;;6243332;22;20457;-88
2023/01/21 05:00:39;;;;;;;28.67;16.03;;;-1.70;99.90;;;;;;6245100;22;20438;-82
2023/01/21 05:03:06;;;;;;;31.17;15.00;;;-1.70;99.90;;;;;;6244965;22;20477;-88
2023/01/21 05:05:33;;;;;;;32.87;17.90;;;-1.80;99.90;;;;;;6244509;22;20475;-81
2023/01/21 05:08:00;;;;;;;28.67;15.90;;;-1.80;99.90;;;;;;6246014;22;20441;-81
2023/01/21 05:10:26;;;;;;;34.33;16.53;;;-1.80;99.90;;;;;;6239629;23;20425;-89
2023/01/21 05:12:53;;;;;;;35.80;18.80;;;-1.90;99.90;;;;;;6237032;22;20474;-86
2023/01/21 05:15:20;;;;;;;35.53;18.30;;;-1.80;99.90;;;;;;6242720;22;20457;-86
2023/01/21 05:17:48;;;;;;;32.50;15.47;;;-1.80;99.90;;;;;;6240420;23;20437;-89
2023/01/21 05:20:15;;;;;;;34.33;15.17;;;-1.80;99.90;;;;;;6241228;22;20429;-83
2023/01/21 05:22:46;;;;;;;32.50;16.50;;;-1.80;99.90;;;;;;6245903;22;20457;-81
2023/01/21 05:25:12;;;;;;;30.70;15.97;;;-1.90;99.90;;;;;;6245232;22;20385;-82
2023/01/21 05:27:39;;;;;;;35.53;17.70;;;-1.90;99.90;;;;;;6259715;22;20463;-90
2023/01/21 05:30:07;;;;;;;37.27;19.17;;;-2.00;99.90;;;;;;6275325;22;20476;-88
2023/01/21 05:32:35;;;;;;;34.40;17.93;;;-2.10;99.90;;;;;;6274133;22;20453;-81
2023/01/21 05:35:03;;;;;;;35.93;17.70;;;-2.40;99.90;;;;;;6276054;22;20491;-80
2023/01/21 05:37:30;;;;;;;38.70;17.63;;;-2.50;99.90;;;;;;6275886;22;20441;-86
2023/01/21 05:39:57;;;;;;;41.63;20.20;;;-2.40;99.90;;;;;;6272747;22;20389;-80
2023/01/21 05:42:23;;;;;;;45.23;23.60;;;-2.60;99.90;;;;;;6275726;22;20476;-80
2023/01/21 05:44:50;;;;;;;38.77;20.10;;;-2.70;99.90;;;;;;6271297;22;20438;-82
2023/01/21 05:47:17;;;;;;;42.73;20.00;;;-2.70;99.90;;;;;;6268855;23;20472;-82
2023/01/21 05:49:44;;;;;;;43.90;20.40;;;-2.70;99.90;;;;;;6260594;22;20532;-83
2023/01/21 05:52:12;;;;;;;41.50;19.80;;;-2.70;99.90;;;;;;6269161;23;20451;-86
2023/01/21 05:54:39;;;;;;;34.47;18.93;;;-2.60;99.90;;;;;;6265899;23;20816;-90
2023/01/21 05:57:05;;;;;;;34.87;17.80;;;-2.50;99.90;;;;;;6264931;23;20427;-88
2023/01/21 05:59:32;;;;;;;35.80;17.77;;;-2.50;99.90;;;;;;6267269;23;20389;-89
2023/01/21 06:01:59;;;;;;;39.23;17.50;;;-2.40;99.90;;;;;;6274140;22;20405;-89
2023/01/21 06:04:29;;;;;;;40.17;18.67;;;-2.50;99.90;;;;;;6274021;22;20432;-86
2023/01/21 06:06:56;;;;;;;37.43;17.97;;;-2.30;99.90;;;;;;6273712;22;20388;-89
2023/01/21 06:09:24;;;;;;;36.80;18.57;;;-2.20;99.90;;;;;;6269619;22;20410;-88
2023/01/21 06:11:51;;;;;;;33.43;16.50;;;-2.10;99.90;;;;;;6259243;23;20401;-89
2023/01/21 06:14:17;;;;;;;28.57;16.03;;;-2.20;99.90;;;;;;6268192;22;20440;-90
2023/01/21 06:16:44;;;;;;;39.20;18.90;;;-2.10;99.90;;;;;;6273180;22;20449;-89
2023/01/21 06:19:11;;;;;;;41.13;20.00;;;-2.30;99.90;;;;;;6275451;22;20449;-81
2023/01/21 06:21:37;;;;;;;33.40;17.47;;;-2.60;99.90;;;;;;6272987;22;20421;-86
2023/01/21 06:24:05;;;;;;;39.93;17.80;;;-2.40;99.90;;;;;;6257066;23;20418;-80
2023/01/21 06:26:33;;;;;;;30.87;17.47;;;-2.30;99.90;;;;;;6243980;23;20473;-80
2023/01/21 06:29:00;;;;;;;41.93;15.80;;;-2.30;99.90;;;;;;6242224;23;20749;-79
2023/01/21 06:31:27;;;;;;;33.97;16.23;;;-2.20;99.90;;;;;;6247012;23;20404;-80
2023/01/21 06:33:54;;;;;;;30.07;14.93;;;-2.10;99.90;;;;;;6249299;22;20445;-80
2023/01/21 06:54:29;;;;;;;37.20;17.70;;;-2.50;99.90;;;;;;6249912;22;20463;-87
2023/01/21 06:56:56;;;;;;;32.73;14.73;;;-2.80;99.90;;;;;;6252457;23;20432;-85
2023/01/21 06:59:23;;;;;;;24.73;13.17;;;-2.50;99.90;;;;;;6251135;23;20773;-85
2023/01/21 07:01:50;;;;;;;27.83;14.90;;;-2.40;99.90;;;;;;6246469;23;20429;-82
2023/01/21 07:04:17;;;;;;;43.93;16.50;;;-2.50;99.90;;;;;;6253445;23;20401;-84
2023/01/21 07:06:43;;;;;;;21.20;12.17;;;-2.50;99.90;;;;;;6255635;23;20409;-84
2023/01/21 07:09:10;;;;;;;29.63;13.17;;;-2.50;99.90;;;;;;6256137;23;20431;-89
2023/01/21 07:11:38;;;;;;;27.73;14.17;;;-2.40;99.90;;;;;;6269363;22;20389;-84
2023/01/21 07:14:05;;;;;;;42.63;19.53;;;-2.40;99.90;;;;;;6272604;22;20452;-88
2023/01/21 07:16:32;;;;;;;38.23;18.97;;;-2.50;99.90;;;;;;6273017;22;20436;-80
2023/01/21 07:18:59;;;;;;;31.97;14.40;;;-2.90;99.90;;;;;;6274091;22;20401;-80
2023/01/21 07:21:26;;;;;;;30.23;15.40;;;-2.40;99.90;;;;;;6272991;22;20409;-86
2023/01/21 07:23:53;;;;;;;23.73;14.03;;;-2.40;99.90;;;;;;6265671;23;20448;-81
2023/01/21 07:26:20;;;;;;;32.00;17.10;;;-2.60;99.90;;;;;;6256169;23;20497;-87
2023/01/21 07:28:48;;;;;;;36.73;16.93;;;-2.50;99.90;;;;;;6260811;23;20389;-90
2023/01/21 07:31:15;;;;;;;28.57;15.43;;;-2.40;99.90;;;;;;6261069;23;20477;-85
2023/01/21 07:33:42;;;;;;;32.13;15.97;;;-2.50;99.90;;;;;;6271941;23;20409;-80
2023/01/21 07:36:09;;;;;;;36.23;20.23;;;-2.80;99.90;;;;;;6272851;22;20503;-81
2023/01/21 07:38:36;;;;;;;34.87;15.60;;;-3.20;99.90;;;;;;6274379;22;20460;-80
2023/01/21 07:41:02;;;;;;;37.97;16.90;;;-2.80;99.90;;;;;;6274870;22;20417;-87
2023/01/21 07:43:29;;;;;;;28.53;15.30;;;-2.60;99.90;;;;;;6267793;22;20493;-90
2023/01/21 07:45:59;;;;;;;30.70;16.10;;;-2.40;99.90;;;;;;6262926;23;20469;-90
2023/01/21 07:48:28;;;;;;;35.13;18.20;;;-2.30;99.90;;;;;;6256751;23;20512;-80
2023/01/21 07:50:57;;;;;;;28.77;16.10;;;-2.60;99.90;;;;;;6262115;22;20412;-84
2023/01/21 07:53:24;;;;;;;33.60;15.87;;;-2.40;99.90;;;;;;6256279;23;20421;-80
2023/01/21 07:55:50;;;;;;;35.40;15.97;;;-2.30;99.90;;;;;;6251804;23;20457;-85
2023/01/21 07:58:17;;;;;;;28.07;13.80;;;-2.40;99.90;;;;;;6254897;23;20393;-81
2023/01/21 08:00:44;;;;;;;26.67;13.40;;;-2.30;99.90;;;;;;6260574;22;20409;-79
2023/01/21 08:03:12;;;;;;;29.63;14.10;;;-2.00;99.90;;;;;;6253628;22;20455;-82
2023/01/21 08:05:39;;;;;;;34.10;14.57;;;-1.90;99.90;;;;;;6258691;23;20461;-81
2023/01/21 08:08:06;;;;;;;26.13;16.00;;;-2.00;99.90;;;;;;6257721;23;20407;-79
2023/01/21 08:10:32;;;;;;;27.47;14.50;;;-2.40;99.90;;;;;;6257505;23;20465;-80
2023/01/21 08:13:00;;;;;;;30.40;14.07;;;-2.60;99.90;;;;;;6265919;23;20401;-83
2023/01/21 08:15:27;;;;;;;39.13;15.73;;;-2.50;99.90;;;;;;6262480;23;20437;-84
2023/01/21 08:17:55;;;;;;;30.33;17.10;;;-2.30;99.90;;;;;;6258442;23;20569;-81
2023/01/21 08:20:23;;;;;;;36.87;17.70;;;-2.30;99.90;;;;;;6265109;23;20466;-79
2023/01/21 08:22:50;;;;;;;27.40;14.53;;;-2.70;99.90;;;;;;6270977;22;20415;-87
2023/01/21 08:25:17;;;;;;;23.53;13.80;;;-2.40;99.90;;;;;;6265465;23;20397;-86
2023/01/21 08:27:44;;;;;;;33.07;16.67;;;-2.30;99.90;;;;;;6265130;23;20413;-85
2023/01/21 08:30:12;;;;;;;37.17;20.30;;;-2.20;99.90;;;;;;6265717;23;20427;-80
2023/01/21 08:32:39;;;;;;;35.00;18.23;;;-2.70;99.90;;;;;;6271322;23;20452;-80
2023/01/21 08:35:07;;;;;;;25.77;14.27;;;-2.80;99.90;;;;;;6265302;23;20440;-84
2023/01/21 08:37:35;;;;;;;31.63;18.43;;;-2.50;99.90;;;;;;6256007;23;20409;-80
2023/01/21 08:40:01;;;;;;;34.50;18.33;;;-2.90;99.90;;;;;;6266940;22;20823;-80
2023/01/21 08:42:29;;;;;;;35.07;17.57;;;-3.00;99.90;;;;;;6265437;23;20412;-80
2023/01/21 08:44:56;;;;;;;43.13;18.67;;;-2.80;99.90;;;;;;6254843;23;20412;-80
2023/01/21 08:49:53;;;;;;;33.20;15.40;;;-3.00;99.90;;;;;;6233411;22;20483;-80
2023/01/21 08:54:57;;;;;;;29.83;16.30;;;-2.60;99.90;;;;;;6251229;22;20525;-84
2023/01/21 08:57:24;;;;;;;32.67;17.93;;;-2.60;99.90;;;;;;6261880;23;20473;-86
2023/01/21 08:59:50;;;;;;;27.03;15.13;;;-2.40;99.90;;;;;;6266325;23;20433;-86
2023/01/21 09:02:17;;;;;;;35.67;18.43;;;-2.80;99.90;;;;;;6270591;22;20397;-81
2023/01/21 09:04:44;;;;;;;34.97;20.87;;;-1.80;99.90;;;;;;6274561;22;20414;-81
2023/01/21 09:07:11;;;;;;;35.10;17.97;;;-0.20;99.90;;;;;;6262843;22;20406;-79
2023/01/21 09:09:38;;;;;;;37.23;19.50;;;-3.00;99.90;;;;;;6256661;23;20488;-79
2023/01/21 09:12:07;;;;;;;29.90;16.07;;;-3.00;99.90;;;;;;6258529;23;20448;-79
2023/01/21 09:14:34;;;;;;;36.83;18.73;;;-2.60;99.90;;;;;;6247715;23;20913;-78
2023/01/21 09:17:01;;;;;;;39.80;18.80;;;-2.60;99.90;;;;;;6244160;23;20405;-78
2023/01/21 09:19:27;;;;;;;38.70;18.67;;;-2.80;99.90;;;;;;6244075;23;20423;-79
2023/01/21 09:21:54;;;;;;;36.23;17.27;;;-2.80;99.90;;;;;;6246782;23;20397;-79
2023/01/21 09:24:24;;;;;;;37.70;20.67;;;-2.40;99.90;;;;;;6245010;23;20427;-79
2023/01/21 09:26:51;;;;;;;38.27;18.57;;;-2.70;99.90;;;;;;6245937;23;20405;-80
2023/01/21 09:29:19;;;;;;;40.13;17.80;;;-2.80;99.90;;;;;;6244157;23;20473;-79
2023/01/21 09:31:46;;;;;;;36.00;19.57;;;-2.50;99.90;;;;;;6247044;23;20417;-79
2023/01/21 09:34:12;;;;;;;46.40;21.50;;;-2.50;99.90;;;;;;6246414;23;20427;-80
2023/01/21 09:36:39;;;;;;;40.87;19.60;;;-2.60;99.90;;;;;;6244763;23;20457;-79
2023/01/21 09:39:07;;;;;;;48.40;19.10;;;-2.60;99.90;;;;;;6243176;23;20399;-79
2023/01/21 09:41:37;;;;;;;34.47;19.33;;;-2.50;99.90;;;;;;6248708;23;20496;-80
2023/01/21 09:44:12;;;;;;;36.77;17.13;;;-2.50;99.90;;;;;;6247458;22;21186;-78
2023/01/21 09:46:46;;;;;;;37.30;20.50;;;-2.30;99.90;;;;;;6244672;22;20608;-78
2023/01/21 09:49:19;;;;;;;42.37;19.17;;;-2.40;99.90;;;;;;6243139;23;20429;-78
2023/01/21 09:51:51;;;;;;;46.53;17.77;;;-2.40;99.90;;;;;;6252648;23;20416;-81
2023/01/21 09:57:24;;;;;;;41.63;20.73;;;-2.10;99.90;;;;;;6228260;22;20447;-80
2023/01/21 10:00:05;;;;;;;40.97;21.17;;;-1.70;99.90;;;;;;6260428;23;20409;-80
2023/01/21 10:02:41;;;;;;;43.13;20.80;;;-1.10;99.90;;;;;;6259704;23;20408;-79
2023/01/21 10:05:28;;;;;;;43.53;20.77;;;-1.60;99.90;;;;;;6259315;23;20459;-80
2023/01/21 10:08:04;;;;;;;40.97;19.03;;;-2.20;99.90;;;;;;6258232;23;20457;-81
2023/01/21 10:10:38;;;;;;;33.43;19.00;;;-1.90;99.90;;;;;;6260092;23;20456;-81
2023/01/21 10:13:22;;;;;;;37.63;16.07;;;-1.80;99.90;;;;;;6261687;23;20400;-82
2023/01/21 10:15:58;;;;;;;34.40;17.40;;;-1.50;99.90;;;;;;6261081;23;20464;-84
2023/01/21 10:18:29;;;;;;;34.97;15.63;;;-1.80;99.90;;;;;;6260375;23;20465;-79
2023/01/21 10:21:02;;;;;;;38.77;16.33;;;-1.60;99.90;;;;;;6246356;23;21209;-78
2023/01/21 10:23:34;;;;;;;33.43;14.83;;;-1.40;99.90;;;;;;6245918;23;20413;-79
2023/01/21 10:26:06;;;;;;;32.80;16.50;;;-1.30;99.90;;;;;;6242682;23;20382;-83
2023/01/21 10:28:33;;;;;;;30.53;14.83;;;-1.20;99.90;;;;;;6242956;23;20461;-81
2023/01/21 10:31:07;;;;;;;31.50;17.43;;;-1.10;99.90;;;;;;6242705;23;20475;-79
2023/01/21 10:33:35;;;;;;;26.13;14.43;;;-1.70;99.90;;;;;;6243662;23;20485;-80
2023/01/21 10:36:35;;;;;;;62.70;30.20;;;-1.50;99.90;;;;;;6243723;23;20524;-79
2023/01/21 10:39:09;;;;;;;27.63;15.03;;;-1.50;99.90;;;;;;6237445;23;20410;-80
2023/01/21 10:41:56;;;;;;;31.80;15.40;;;-1.40;99.90;;;;;;6242861;23;20907;-81
2023/01/21 10:44:30;;;;;;;25.03;13.73;;;-1.30;99.90;;;;;;6242452;23;20409;-80
2023/01/21 10:47:04;;;;;;;26.77;14.87;;;-1.20;99.90;;;;;;6243511;23;20410;-81
2023/01/21 10:49:46;;;;;;;27.20;13.73;;;-1.30;99.90;;;;;;6242512;23;21087;-80
2023/01/21 10:52:19;;;;;;;31.50;15.30;;;-1.30;99.90;;;;;;6242003;23;20419;-81
2023/01/21 10:54:53;;;;;;;26.77;15.57;;;-1.20;99.90;;;;;;6242737;23;20417;-80
2023/01/21 10:57:31;;;;;;;27.73;14.47;;;-1.10;99.90;;;;;;6242189;23;20489;-81
2023/01/21 11:00:00;;;;;;;22.40;12.23;;;-1.40;99.90;;;;;;6242795;23;20397;-80
2023/01/21 11:02:30;;;;;;;21.33;12.10;;;-1.30;99.90;;;;;;6243971;23;20408;-79
2023/01/21 11:05:01;;;;;;;27.03;14.30;;;-1.10;99.90;;;;;;6244403;23;20402;-79
2023/01/21 11:07:32;;;;;;;27.40;13.17;;;-1.00;99.90;;;;;;6243164;23;20397;-80
2023/01/21 11:10:02;;;;;;;25.77;14.33;;;-0.90;99.90;;;;;;6242210;23;20385;-80
2023/01/21 11:12:29;;;;;;;27.00;13.50;;;-0.90;99.90;;;;;;6241656;23;20448;-78
2023/01/21 11:15:04;;;;;;;29.93;16.20;;;-0.80;99.90;;;;;;6241755;23;20896;-84
2023/01/21 11:17:34;;;;;;;28.63;14.03;;;-0.70;99.90;;;;;;6244888;23;20463;-85
2023/01/21 11:20:04;;;;;;;23.97;12.17;;;-0.60;99.90;;;;;;6242949;23;20405;-89
2023/01/21 11:22:31;;;;;;;24.40;11.53;;;-0.50;99.90;;;;;;6242056;23;20389;-84
2023/01/21 11:24:59;;;;;;;32.90;13.57;;;-0.70;99.90;;;;;;6244446;23;20410;-80
2023/01/21 11:27:33;;;;;;;24.03;12.20;;;-0.60;99.90;;;;;;6257467;22;20465;-86
2023/01/21 11:30:01;;;;;;;22.43;12.43;;;-1.10;99.90;;;;;;6270267;22;20473;-87
2023/01/21 11:32:29;;;;;;;29.60;14.10;;;0.10;99.90;;;;;;6263006;23;20406;-92
2023/01/21 11:42:48;;;;;;;21.20;12.23;;;-0.60;99.90;;;;;;6225355;22;20458;-93
2023/01/21 11:45:27;;;;;;;19.80;11.13;;;-0.50;99.90;;;;;;6231973;22;20537;-90
2023/01/21 11:47:55;;;;;;;24.47;11.60;;;-0.20;99.90;;;;;;6261107;23;20780;-88
2023/01/21 11:50:26;;;;;;;25.57;11.57;;;1.40;99.90;;;;;;6258347;23;20441;-90
2023/01/21 11:53:11;;;;;;;22.40;12.37;;;-0.20;99.90;;;;;;6258905;23;20420;-91
2023/01/21 11:55:41;;;;;;;27.87;11.20;;;-0.20;99.90;;;;;;6271310;22;21263;-91
2023/01/21 11:58:19;;;;;;;25.20;11.73;;;-0.50;99.90;;;;;;6267753;23;20408;-86
2023/01/21 12:00:51;;;;;;;19.57;10.30;;;-0.30;99.90;;;;;;6257488;23;20913;-90
2023/01/21 12:03:21;;;;;;;24.00;12.30;;;-0.40;99.90;;;;;;6265817;22;20405;-88
2023/01/21 12:19:15;;;;;;;23.70;10.70;;;-0.50;99.90;;;;;;6245298;22;20465;-92
2023/01/21 12:21:49;;;;;;;20.67;9.87;;;-0.50;99.90;;;;;;6267082;22;20429;-91
2023/01/21 12:24:26;;;;;;;21.87;11.47;;;1.00;99.90;;;;;;6269506;23;20434;-90
2023/01/21 12:27:02;;;;;;;24.43;11.47;;;0.50;99.90;;;;;;6267252;22;20402;-92
2023/01/21 12:29:46;;;;;;;17.80;10.10;;;0.50;99.90;;;;;;6241512;22;20988;-79
2023/01/21 12:32:20;;;;;;;19.07;11.40;;;-0.40;99.90;;;;;;6238599;23;20400;-81
2023/01/21 12:34:54;;;;;;;19.10;10.10;;;-0.40;99.90;;;;;;6239322;23;20430;-82
2023/01/21 12:37:28;;;;;;;21.03;11.50;;;-0.40;99.90;;;;;;6242154;22;21045;-78
2023/01/21 12:39:58;;;;;;;16.73;9.10;;;-0.80;99.90;;;;;;6237057;22;20517;-78
2023/01/21 12:45:05;;;;;;;31.60;14.60;;;-0.70;99.90;;;;;;6255549;22;20461;-91
2023/01/21 12:47:39;;;;;;;20.53;11.87;;;-0.50;99.90;;;;;;6237193;22;20444;-92
2023/01/21 12:50:26;;;;;;;20.83;11.07;;;-0.70;99.90;;;;;;6268922;23;20414;-93
2023/01/21 12:53:03;;;;;;;21.77;11.50;;;-0.30;99.90;;;;;;6259749;23;20409;-92
2023/01/21 12:55:38;;;;;;;19.93;10.70;;;-0.30;99.90;;;;;;6263578;23;20433;-91
2023/01/21 12:58:11;;;;;;;22.43;10.93;;;-0.10;99.90;;;;;;6250999;23;20394;-89
2023/01/21 13:00:42;;;;;;;21.33;12.03;;;-0.50;99.90;;;;;;6249944;23;20433;-91
2023/01/21 13:03:17;;;;;;;18.70;10.23;;;-0.50;99.90;;;;;;6256471;23;20438;-90
2023/01/21 13:05:52;;;;;;;17.77;9.60;;;-0.60;99.90;;;;;;6253368;23;20393;-92
2023/01/21 13:08:35;;;;;;;22.03;10.77;;;-0.30;99.90;;;;;;6244648;23;20412;-91
2023/01/21 13:11:10;;;;;;;20.83;9.87;;;-0.20;99.90;;;;;;6243073;23;20417;-89
2023/01/21 13:13:41;;;;;;;18.43;8.87;;;-0.10;99.90;;;;;;6244955;23;20402;-94
2023/01/21 13:16:10;;;;;;;14.60;9.07;;;0.00;99.90;;;;;;6247203;23;20483;-91
2023/01/21 13:18:38;;;;;;;20.13;10.07;;;0.10;99.90;;;;;;6247320;23;20409;-91
2023/01/21 13:21:17;;;;;;;18.23;10.37;;;-0.10;99.90;;;;;;6247961;23;20637;-91
2023/01/21 13:23:50;;;;;;;169.13;82.03;;;-0.10;99.90;;;;;;6248590;23;20443;-90
2023/01/21 13:26:25;;;;;;;13.87;9.87;;;0.00;99.90;;;;;;6253500;23;21030;-90
2023/01/21 13:28:59;;;;;;;20.50;10.67;;;0.00;99.90;;;;;;6251834;23;20393;-90
2023/01/21 13:31:34;;;;;;;18.37;9.60;;;0.00;99.90;;;;;;6248242;23;20883;-89
2023/01/21 13:34:13;;;;;;;17.53;9.30;;;-0.10;99.90;;;;;;6248051;23;20420;-92
2023/01/21 13:36:56;;;;;;;22.53;10.30;;;-0.10;99.90;;;;;;6247083;23;20528;-92
2023/01/21 13:39:29;;;;;;;24.03;11.27;;;-0.20;99.90;;;;;;6250921;23;20643;-89